Airfield :
LOGIN :

Register | Disclaimer

   EN    FR    IT 

 










Legend :    VFR   Marginal VFR   IFR   Intensive IFR   Very Intensive IFR
Visi :
Ceiling :
>= 8 km
>= 3000ft
5 to 8 km
1000 to 3000 ft
1500m to 5 km
500 to 1000 ft
800 to 1500m
200 to 500 ft
< 800m
< 200 ft
Symbols :   Thunderstorms  Fog  Heavy snow  Heavy precipitations  Wind > 20 kt
SIGMETs :     Misc.  Thunderstorms  Icing  Turbulence  Mountain Waves  Volcanic Ashes







- Airport Elevation : 1247 ft
- IATA code : PRG


LKPR - Praha Ruzyne

CURRENT METAR :
  • 180530Z 22005KT 8000 NSC M02/M04 Q1022 NOSIG

EXPIRED METARs :
  • 180500Z 18002KT 8000 NSC M01/M02 Q1022 NOSIG
  • 180430Z VRB01KT 8000 NSC M00/M02 Q1023 NOSIG
  • 180400Z 21002KT 7000 NSC M00/M02 Q1023 NOSIG
  • 180330Z 19002KT 5000 BR NSC M00/M01 Q1023 NOSIG
  • 180300Z 21003KT 5000 BR NSC M01/M02 Q1023 NOSIG

TAF TAF LKPR
Valid from the 18 at 00:00 until the 19 at 06:00 UTC


172300Z 1800/1906 VRB02KT 7000 NSC
PROB30
TEMPO 1801/1808 2500 MIFG NSC
TEMPO 1810/1817 21006KT
No reported NOTAMs for that airfield.



MET'MAP, your aeronautical weather chart ! - Copyright ORBIFLY December 2007 - Disclaimer

ORBIFLY MET'MAP TEAM :

Programming & Development : Alexandra Zaïnal
Concept & Development : Baudouin d'Aumeries
Co-Development & Prog : Marc-Olivier Méhu
Technical & hardware support : Manuel Goepfert

Contact : metmap@orbifly.com




SOURCES & CREDITS :

   NOAA